sensor_id;sensor_type;location;lat;lon;timestamp;pressure;altitude;pressure_sealevel;temperature;humidity
3142;BME280;1581;51.568;6.998;2023-01-30T00:00:25;101142.75;;;4.11;100.00
3142;BME280;1581;51.568;6.998;2023-01-30T00:02:54;101141.78;;;4.12;100.00
3142;BME280;1581;51.568;6.998;2023-01-30T00:05:22;101154.81;;;4.14;100.00
3142;BME280;1581;51.568;6.998;2023-01-30T00:07:49;101139.69;;;4.06;100.00
3142;BME280;1581;51.568;6.998;2023-01-30T00:10:18;101139.03;;;4.23;100.00
3142;BME280;1581;51.568;6.998;2023-01-30T00:12:45;101123.47;;;4.20;100.00
3142;BME280;1581;51.568;6.998;2023-01-30T00:15:13;101130.94;;;4.15;100.00
3142;BME280;1581;51.568;6.998;2023-01-30T00:17:41;101125.69;;;4.24;100.00
3142;BME280;1581;51.568;6.998;2023-01-30T00:20:11;101109.28;;;4.12;100.00
3142;BME280;1581;51.568;6.998;2023-01-30T00:22:39;101103.75;;;4.24;100.00
3142;BME280;1581;51.568;6.998;2023-01-30T00:25:07;101099.97;;;4.45;100.00
3142;BME280;1581;51.568;6.998;2023-01-30T00:27:35;101093.91;;;4.17;100.00
3142;BME280;1581;51.568;6.998;2023-01-30T00:30:03;101102.66;;;4.26;100.00
3142;BME280;1581;51.568;6.998;2023-01-30T00:32:32;101091.53;;;4.32;100.00
3142;BME280;1581;51.568;6.998;2023-01-30T00:35:00;101081.13;;;4.22;100.00
3142;BME280;1581;51.568;6.998;2023-01-30T00:37:29;101066.22;;;4.49;100.00
3142;BME280;1581;51.568;6.998;2023-01-30T00:39:57;101079.03;;;4.44;100.00
3142;BME280;1581;51.568;6.998;2023-01-30T00:42:25;101074.28;;;4.38;100.00
3142;BME280;1581;51.568;6.998;2023-01-30T00:45:10;101058.19;;;4.41;100.00
3142;BME280;1581;51.568;6.998;2023-01-30T00:47:55;101057.22;;;4.32;100.00
3142;BME280;1581;51.568;6.998;2023-01-30T00:50:23;101062.03;;;4.56;100.00
3142;BME280;1581;51.568;6.998;2023-01-30T00:53:09;101045.38;;;4.55;100.00
3142;BME280;1581;51.568;6.998;2023-01-30T00:55:37;101035.19;;;4.70;100.00
3142;BME280;1581;51.568;6.998;2023-01-30T00:58:05;101043.56;;;4.56;100.00
3142;BME280;1581;51.568;6.998;2023-01-30T01:00:33;101043.13;;;4.70;100.00
3142;BME280;1581;51.568;6.998;2023-01-30T01:03:04;101066.59;;;4.63;100.00
3142;BME280;1581;51.568;6.998;2023-01-30T01:05:32;101040.66;;;4.59;100.00
3142;BME280;1581;51.568;6.998;2023-01-30T01:07:59;101026.03;;;4.74;100.00
3142;BME280;1581;51.568;6.998;2023-01-30T01:10:29;101019.38;;;4.70;100.00
3142;BME280;1581;51.568;6.998;2023-01-30T01:12:58;101017.16;;;4.65;100.00
3142;BME280;1581;51.568;6.998;2023-01-30T01:15:26;101010.84;;;4.76;100.00
3142;BME280;1581;51.568;6.998;2023-01-30T01:17:55;101009.31;;;4.83;100.00
3142;BME280;1581;51.568;6.998;2023-01-30T01:20:23;101016.22;;;4.57;100.00
3142;BME280;1581;51.568;6.998;2023-01-30T01:22:53;101014.78;;;4.62;100.00
3142;BME280;1581;51.568;6.998;2023-01-30T01:25:21;101018.16;;;4.55;100.00
3142;BME280;1581;51.568;6.998;2023-01-30T01:27:51;101004.25;;;4.62;100.00
3142;BME280;1581;51.568;6.998;2023-01-30T01:30:20;100997.63;;;4.49;100.00
3142;BME280;1581;51.568;6.998;2023-01-30T01:32:47;100992.56;;;4.65;100.00
3142;BME280;1581;51.568;6.998;2023-01-30T01:35:15;100991.59;;;4.66;100.00
3142;BME280;1581;51.568;6.998;2023-01-30T01:37:44;100997.53;;;4.77;100.00
3142;BME280;1581;51.568;6.998;2023-01-30T01:40:18;100978.78;;;4.71;100.00
3142;BME280;1581;51.568;6.998;2023-01-30T01:43:15;100983.66;;;4.66;100.00
3142;BME280;1581;51.568;6.998;2023-01-30T01:45:44;100976.97;;;4.71;100.00
3142;BME280;1581;51.568;6.998;2023-01-30T01:48:21;100984.63;;;4.65;100.00
3142;BME280;1581;51.568;6.998;2023-01-30T01:50:55;100986.22;;;4.85;100.00
3142;BME280;1581;51.568;6.998;2023-01-30T01:53:28;100979.06;;;4.77;100.00
3142;BME280;1581;51.568;6.998;2023-01-30T01:55:59;100977.81;;;4.72;100.00
3142;BME280;1581;51.568;6.998;2023-01-30T01:58:36;100958.81;;;4.68;100.00
3142;BME280;1581;51.568;6.998;2023-01-30T02:01:06;100974.03;;;4.84;100.00
3142;BME280;1581;51.568;6.998;2023-01-30T02:03:40;100960.81;;;4.84;100.00
3142;BME280;1581;51.568;6.998;2023-01-30T02:06:10;100939.53;;;4.85;100.00
3142;BME280;1581;51.568;6.998;2023-01-30T02:08:42;100955.91;;;4.89;100.00
3142;BME280;1581;51.568;6.998;2023-01-30T02:11:16;100958.28;;;4.92;100.00
3142;BME280;1581;51.568;6.998;2023-01-30T02:13:49;100948.47;;;5.02;100.00
3142;BME280;1581;51.568;6.998;2023-01-30T02:16:17;100943.03;;;5.03;100.00
3142;BME280;1581;51.568;6.998;2023-01-30T02:18:45;100941.25;;;5.04;100.00
3142;BME280;1581;51.568;6.998;2023-01-30T02:22:03;100930.13;;;5.00;100.00
3142;BME280;1581;51.568;6.998;2023-01-30T02:25:15;100906.59;;;5.07;100.00
3142;BME280;1581;51.568;6.998;2023-01-30T02:28:27;100905.25;;;5.03;100.00
3142;BME280;1581;51.568;6.998;2023-01-30T02:31:19;100881.03;;;5.07;100.00
3142;BME280;1581;51.568;6.998;2023-01-30T02:34:04;100893.34;;;5.16;100.00
3142;BME280;1581;51.568;6.998;2023-01-30T02:36:50;100902.28;;;5.06;100.00
3142;BME280;1581;51.568;6.998;2023-01-30T02:39:33;100902.41;;;5.13;100.00
3142;BME280;1581;51.568;6.998;2023-01-30T02:42:10;100893.63;;;5.30;100.00
3142;BME280;1581;51.568;6.998;2023-01-30T02:44:52;100891.38;;;5.18;100.00
3142;BME280;1581;51.568;6.998;2023-01-30T02:47:28;100897.19;;;5.21;100.00
3142;BME280;1581;51.568;6.998;2023-01-30T02:50:04;100867.28;;;5.38;100.00
3142;BME280;1581;51.568;6.998;2023-01-30T02:52:34;100884.56;;;5.50;100.00
3142;BME280;1581;51.568;6.998;2023-01-30T02:55:08;100866.94;;;5.33;100.00
3142;BME280;1581;51.568;6.998;2023-01-30T02:57:36;100867.91;;;5.32;100.00
3142;BME280;1581;51.568;6.998;2023-01-30T03:00:05;100859.41;;;5.46;100.00
3142;BME280;1581;51.568;6.998;2023-01-30T03:02:55;100873.00;;;5.51;100.00
3142;BME280;1581;51.568;6.998;2023-01-30T03:06:17;100879.25;;;5.68;100.00
3142;BME280;1581;51.568;6.998;2023-01-30T03:09:00;100859.63;;;5.70;100.00
3142;BME280;1581;51.568;6.998;2023-01-30T03:11:43;100848.13;;;5.62;100.00
3142;BME280;1581;51.568;6.998;2023-01-30T03:14:20;100863.53;;;5.66;100.00
3142;BME280;1581;51.568;6.998;2023-01-30T03:16:54;100857.22;;;5.59;100.00
3142;BME280;1581;51.568;6.998;2023-01-30T03:19:27;100837.00;;;5.76;100.00
3142;BME280;1581;51.568;6.998;2023-01-30T03:21:55;100831.81;;;5.66;100.00
3142;BME280;1581;51.568;6.998;2023-01-30T03:24:23;100830.59;;;5.78;100.00
3142;BME280;1581;51.568;6.998;2023-01-30T03:26:55;100833.19;;;5.70;100.00
3142;BME280;1581;51.568;6.998;2023-01-30T03:29:25;100832.78;;;5.83;100.00
3142;BME280;1581;51.568;6.998;2023-01-30T03:31:52;100831.59;;;5.77;100.00
3142;BME280;1581;51.568;6.998;2023-01-30T03:34:20;100836.50;;;5.72;100.00
3142;BME280;1581;51.568;6.998;2023-01-30T03:36:49;100832.44;;;5.60;100.00
3142;BME280;1581;51.568;6.998;2023-01-30T03:39:17;100821.00;;;5.77;100.00
3142;BME280;1581;51.568;6.998;2023-01-30T03:41:45;100823.28;;;5.72;100.00
3142;BME280;1581;51.568;6.998;2023-01-30T03:44:13;100813.94;;;5.78;100.00
3142;BME280;1581;51.568;6.998;2023-01-30T03:46:41;100828.00;;;5.86;100.00
3142;BME280;1581;51.568;6.998;2023-01-30T03:49:09;100813.66;;;5.89;100.00
3142;BME280;1581;51.568;6.998;2023-01-30T03:51:37;100797.81;;;5.89;100.00
3142;BME280;1581;51.568;6.998;2023-01-30T03:54:06;100794.94;;;5.82;100.00
3142;BME280;1581;51.568;6.998;2023-01-30T03:56:34;100790.94;;;5.78;100.00
3142;BME280;1581;51.568;6.998;2023-01-30T03:59:01;100783.03;;;5.78;100.00
3142;BME280;1581;51.568;6.998;2023-01-30T04:01:29;100790.25;;;5.76;100.00
3142;BME280;1581;51.568;6.998;2023-01-30T04:03:57;100792.53;;;5.71;100.00
3142;BME280;1581;51.568;6.998;2023-01-30T04:06:24;100783.25;;;5.67;100.00
3142;BME280;1581;51.568;6.998;2023-01-30T04:08:52;100787.50;;;5.60;100.00
3142;BME280;1581;51.568;6.998;2023-01-30T04:11:21;100779.13;;;5.65;100.00
3142;BME280;1581;51.568;6.998;2023-01-30T04:13:49;100781.84;;;5.55;100.00
3142;BME280;1581;51.568;6.998;2023-01-30T04:16:19;100774.13;;;5.62;100.00
3142;BME280;1581;51.568;6.998;2023-01-30T04:18:47;100776.50;;;5.73;100.00
3142;BME280;1581;51.568;6.998;2023-01-30T04:21:16;100781.59;;;5.66;100.00
3142;BME280;1581;51.568;6.998;2023-01-30T04:23:44;100781.06;;;5.63;100.00
3142;BME280;1581;51.568;6.998;2023-01-30T04:26:12;100774.28;;;5.78;100.00
3142;BME280;1581;51.568;6.998;2023-01-30T04:28:42;100774.03;;;5.71;100.00
3142;BME280;1581;51.568;6.998;2023-01-30T04:31:10;100772.81;;;5.83;100.00
3142;BME280;1581;51.568;6.998;2023-01-30T04:33:38;100764.22;;;5.81;100.00
3142;BME280;1581;51.568;6.998;2023-01-30T04:36:08;100771.81;;;5.84;100.00
3142;BME280;1581;51.568;6.998;2023-01-30T04:38:36;100763.69;;;5.78;100.00
3142;BME280;1581;51.568;6.998;2023-01-30T04:41:05;100774.31;;;5.86;100.00
3142;BME280;1581;51.568;6.998;2023-01-30T04:43:32;100766.16;;;5.79;100.00
3142;BME280;1581;51.568;6.998;2023-01-30T04:46:02;100772.34;;;5.88;100.00
3142;BME280;1581;51.568;6.998;2023-01-30T04:48:29;100776.78;;;5.87;100.00
3142;BME280;1581;51.568;6.998;2023-01-30T04:50:58;100767.53;;;5.83;100.00
3142;BME280;1581;51.568;6.998;2023-01-30T04:53:26;100757.66;;;5.93;100.00
3142;BME280;1581;51.568;6.998;2023-01-30T04:55:53;100765.03;;;5.82;100.00
3142;BME280;1581;51.568;6.998;2023-01-30T04:58:21;100765.91;;;5.90;100.00
3142;BME280;1581;51.568;6.998;2023-01-30T05:00:49;100757.75;;;5.84;100.00
3142;BME280;1581;51.568;6.998;2023-01-30T05:03:18;100750.72;;;5.92;100.00
3142;BME280;1581;51.568;6.998;2023-01-30T05:05:46;100741.47;;;6.04;100.00
3142;BME280;1581;51.568;6.998;2023-01-30T05:08:14;100745.63;;;5.98;100.00
3142;BME280;1581;51.568;6.998;2023-01-30T05:10:42;100751.41;;;6.02;100.00
3142;BME280;1581;51.568;6.998;2023-01-30T05:13:10;100734.56;;;6.03;100.00
3142;BME280;1581;51.568;6.998;2023-01-30T05:15:39;100730.94;;;6.12;100.00
3142;BME280;1581;51.568;6.998;2023-01-30T05:18:07;100737.53;;;6.08;100.00
3142;BME280;1581;51.568;6.998;2023-01-30T05:20:37;100735.38;;;6.03;100.00
3142;BME280;1581;51.568;6.998;2023-01-30T05:23:04;100734.59;;;6.11;100.00
3142;BME280;1581;51.568;6.998;2023-01-30T05:25:37;100748.34;;;6.22;100.00
3142;BME280;1581;51.568;6.998;2023-01-30T05:28:05;100733.13;;;6.16;100.00
3142;BME280;1581;51.568;6.998;2023-01-30T05:30:32;100736.25;;;6.12;100.00
3142;BME280;1581;51.568;6.998;2023-01-30T05:33:00;100727.66;;;6.18;100.00
3142;BME280;1581;51.568;6.998;2023-01-30T05:35:28;100730.78;;;6.21;100.00
3142;BME280;1581;51.568;6.998;2023-01-30T05:37:58;100724.03;;;6.27;100.00
3142;BME280;1581;51.568;6.998;2023-01-30T05:40:27;100731.28;;;6.17;100.00
3142;BME280;1581;51.568;6.998;2023-01-30T05:42:55;100742.84;;;6.16;100.00
3142;BME280;1581;51.568;6.998;2023-01-30T05:45:23;100727.47;;;6.19;100.00
3142;BME280;1581;51.568;6.998;2023-01-30T05:47:51;100729.31;;;6.19;100.00
3142;BME280;1581;51.568;6.998;2023-01-30T05:50:19;100729.47;;;6.17;100.00
3142;BME280;1581;51.568;6.998;2023-01-30T05:52:46;100746.19;;;6.34;100.00
3142;BME280;1581;51.568;6.998;2023-01-30T05:55:16;100730.19;;;6.35;100.00
3142;BME280;1581;51.568;6.998;2023-01-30T05:57:43;100737.75;;;6.22;100.00
3142;BME280;1581;51.568;6.998;2023-01-30T06:00:13;100738.44;;;6.32;100.00
3142;BME280;1581;51.568;6.998;2023-01-30T06:02:41;100742.28;;;6.46;100.00
3142;BME280;1581;51.568;6.998;2023-01-30T06:05:08;100746.25;;;6.42;100.00
3142;BME280;1581;51.568;6.998;2023-01-30T06:07:36;100761.97;;;6.43;100.00
3142;BME280;1581;51.568;6.998;2023-01-30T06:10:05;100753.22;;;6.59;100.00
3142;BME280;1581;51.568;6.998;2023-01-30T06:12:34;100737.66;;;6.56;100.00
3142;BME280;1581;51.568;6.998;2023-01-30T06:15:02;100756.72;;;6.67;100.00
3142;BME280;1581;51.568;6.998;2023-01-30T06:17:30;100743.00;;;6.64;100.00
3142;BME280;1581;51.568;6.998;2023-01-30T06:19:58;100741.97;;;6.65;100.00
3142;BME280;1581;51.568;6.998;2023-01-30T06:22:26;100734.69;;;6.75;100.00
3142;BME280;1581;51.568;6.998;2023-01-30T06:24:56;100731.91;;;6.68;100.00
3142;BME280;1581;51.568;6.998;2023-01-30T06:27:24;100741.00;;;6.89;100.00
3142;BME280;1581;51.568;6.998;2023-01-30T06:29:54;100746.47;;;6.96;100.00
3142;BME280;1581;51.568;6.998;2023-01-30T06:32:22;100753.09;;;6.84;100.00
3142;BME280;1581;51.568;6.998;2023-01-30T06:34:50;100761.53;;;6.87;100.00
3142;BME280;1581;51.568;6.998;2023-01-30T06:37:18;100755.41;;;7.03;100.00
3142;BME280;1581;51.568;6.998;2023-01-30T06:39:45;100756.41;;;6.94;100.00
3142;BME280;1581;51.568;6.998;2023-01-30T06:42:13;100771.13;;;6.88;100.00
3142;BME280;1581;51.568;6.998;2023-01-30T06:44:41;100760.72;;;6.87;100.00
3142;BME280;1581;51.568;6.998;2023-01-30T06:47:10;100765.53;;;6.83;100.00
3142;BME280;1581;51.568;6.998;2023-01-30T06:49:38;100764.69;;;6.91;100.00
3142;BME280;1581;51.568;6.998;2023-01-30T06:52:06;100768.50;;;6.96;100.00
3142;BME280;1581;51.568;6.998;2023-01-30T06:54:34;100766.19;;;6.93;100.00
3142;BME280;1581;51.568;6.998;2023-01-30T06:57:01;100775.28;;;7.15;100.00
3142;BME280;1581;51.568;6.998;2023-01-30T06:59:29;100766.00;;;7.11;100.00
3142;BME280;1581;51.568;6.998;2023-01-30T07:01:57;100777.09;;;7.14;100.00
3142;BME280;1581;51.568;6.998;2023-01-30T07:04:26;100780.41;;;7.08;100.00
3142;BME280;1581;51.568;6.998;2023-01-30T07:06:53;100778.09;;;7.05;100.00
3142;BME280;1581;51.568;6.998;2023-01-30T07:09:22;100766.69;;;7.13;100.00
3142;BME280;1581;51.568;6.998;2023-01-30T07:11:50;100761.22;;;7.30;100.00
3142;BME280;1581;51.568;6.998;2023-01-30T07:14:18;100759.03;;;7.34;100.00
3142;BME280;1581;51.568;6.998;2023-01-30T07:16:46;100762.53;;;7.26;100.00
3142;BME280;1581;51.568;6.998;2023-01-30T07:19:14;100757.56;;;7.31;100.00
3142;BME280;1581;51.568;6.998;2023-01-30T07:21:43;100769.81;;;7.16;100.00
3142;BME280;1581;51.568;6.998;2023-01-30T07:24:11;100777.78;;;7.08;100.00
3142;BME280;1581;51.568;6.998;2023-01-30T07:26:39;100776.75;;;7.25;100.00
3142;BME280;1581;51.568;6.998;2023-01-30T07:29:07;100780.41;;;7.24;100.00
3142;BME280;1581;51.568;6.998;2023-01-30T07:31:34;100798.47;;;7.29;100.00
3142;BME280;1581;51.568;6.998;2023-01-30T07:34:02;100802.94;;;7.28;100.00
3142;BME280;1581;51.568;6.998;2023-01-30T07:36:31;100811.06;;;7.35;100.00
3142;BME280;1581;51.568;6.998;2023-01-30T07:39:01;100816.53;;;7.41;100.00
3142;BME280;1581;51.568;6.998;2023-01-30T07:41:29;100821.81;;;7.49;100.00
3142;BME280;1581;51.568;6.998;2023-01-30T07:43:57;100823.50;;;7.42;100.00
3142;BME280;1581;51.568;6.998;2023-01-30T07:46:24;100827.47;;;7.30;100.00
3142;BME280;1581;51.568;6.998;2023-01-30T07:48:53;100821.81;;;7.25;100.00
3142;BME280;1581;51.568;6.998;2023-01-30T07:51:21;100821.50;;;7.36;100.00
3142;BME280;1581;51.568;6.998;2023-01-30T07:53:49;100822.16;;;7.30;100.00
3142;BME280;1581;51.568;6.998;2023-01-30T07:56:18;100827.44;;;7.46;100.00
3142;BME280;1581;51.568;6.998;2023-01-30T07:58:48;100826.97;;;7.35;100.00
3142;BME280;1581;51.568;6.998;2023-01-30T08:01:16;100832.09;;;7.28;100.00
3142;BME280;1581;51.568;6.998;2023-01-30T08:03:44;100827.78;;;7.27;100.00
3142;BME280;1581;51.568;6.998;2023-01-30T08:06:12;100837.22;;;7.30;100.00
3142;BME280;1581;51.568;6.998;2023-01-30T08:08:40;100838.41;;;7.43;100.00
3142;BME280;1581;51.568;6.998;2023-01-30T08:11:08;100842.53;;;7.46;100.00
3142;BME280;1581;51.568;6.998;2023-01-30T08:13:38;100840.06;;;7.52;100.00
3142;BME280;1581;51.568;6.998;2023-01-30T08:16:07;100839.06;;;7.37;100.00
3142;BME280;1581;51.568;6.998;2023-01-30T08:18:34;100837.06;;;7.55;100.00
3142;BME280;1581;51.568;6.998;2023-01-30T08:21:06;100841.03;;;7.59;100.00
3142;BME280;1581;51.568;6.998;2023-01-30T08:23:34;100848.50;;;7.64;100.00
3142;BME280;1581;51.568;6.998;2023-01-30T08:26:06;100850.31;;;7.79;100.00
3142;BME280;1581;51.568;6.998;2023-01-30T08:28:40;100859.59;;;7.59;100.00
3142;BME280;1581;51.568;6.998;2023-01-30T08:31:12;100848.47;;;7.71;100.00
3142;BME280;1581;51.568;6.998;2023-01-30T08:33:40;100868.72;;;7.65;100.00
3142;BME280;1581;51.568;6.998;2023-01-30T08:36:08;100877.66;;;7.71;100.00
3142;BME280;1581;51.568;6.998;2023-01-30T08:38:36;100867.38;;;7.76;100.00
3142;BME280;1581;51.568;6.998;2023-01-30T08:41:05;100871.69;;;7.85;100.00
3142;BME280;1581;51.568;6.998;2023-01-30T08:43:33;100856.63;;;7.70;100.00
3142;BME280;1581;51.568;6.998;2023-01-30T08:46:03;100873.50;;;7.77;100.00
3142;BME280;1581;51.568;6.998;2023-01-30T08:48:31;100870.53;;;7.64;100.00
3142;BME280;1581;51.568;6.998;2023-01-30T08:50:59;100869.88;;;7.78;100.00
3142;BME280;1581;51.568;6.998;2023-01-30T08:53:27;100862.88;;;7.85;100.00
3142;BME280;1581;51.568;6.998;2023-01-30T08:55:55;100871.16;;;7.98;100.00
3142;BME280;1581;51.568;6.998;2023-01-30T08:58:23;100881.47;;;7.93;100.00
3142;BME280;1581;51.568;6.998;2023-01-30T09:00:51;100885.94;;;7.84;100.00
3142;BME280;1581;51.568;6.998;2023-01-30T09:03:20;100880.44;;;7.94;100.00
3142;BME280;1581;51.568;6.998;2023-01-30T09:05:54;100881.16;;;7.72;100.00
3142;BME280;1581;51.568;6.998;2023-01-30T09:08:22;100889.25;;;7.86;100.00
3142;BME280;1581;51.568;6.998;2023-01-30T09:10:50;100893.69;;;8.10;100.00
3142;BME280;1581;51.568;6.998;2023-01-30T09:13:18;100893.88;;;7.92;100.00
3142;BME280;1581;51.568;6.998;2023-01-30T09:15:46;100898.84;;;8.03;100.00
3142;BME280;1581;51.568;6.998;2023-01-30T09:18:14;100882.75;;;8.21;100.00
3142;BME280;1581;51.568;6.998;2023-01-30T09:20:46;100894.81;;;8.31;100.00
3142;BME280;1581;51.568;6.998;2023-01-30T09:23:14;100894.28;;;8.52;100.00
3142;BME280;1581;51.568;6.998;2023-01-30T09:25:44;100878.41;;;8.28;100.00
3142;BME280;1581;51.568;6.998;2023-01-30T09:28:12;100900.00;;;8.33;100.00
3142;BME280;1581;51.568;6.998;2023-01-30T09:30:40;100893.88;;;8.00;100.00
3142;BME280;1581;51.568;6.998;2023-01-30T09:33:08;100911.94;;;8.29;100.00
3142;BME280;1581;51.568;6.998;2023-01-30T09:35:36;100900.63;;;8.43;100.00
3142;BME280;1581;51.568;6.998;2023-01-30T09:38:05;100898.84;;;8.65;100.00
3142;BME280;1581;51.568;6.998;2023-01-30T09:40:39;100903.13;;;8.36;100.00
3142;BME280;1581;51.568;6.998;2023-01-30T09:43:26;100921.06;;;8.02;100.00
3142;BME280;1581;51.568;6.998;2023-01-30T09:46:07;100927.22;;;8.11;100.00
3142;BME280;1581;51.568;6.998;2023-01-30T09:48:44;100939.47;;;8.04;100.00
3142;BME280;1581;51.568;6.998;2023-01-30T09:51:41;100927.22;;;8.19;100.00
3142;BME280;1581;51.568;6.998;2023-01-30T09:54:22;100933.34;;;7.95;100.00
3142;BME280;1581;51.568;6.998;2023-01-30T09:57:07;100929.69;;;8.12;100.00
3142;BME280;1581;51.568;6.998;2023-01-30T09:59:46;100922.91;;;8.18;100.00
3142;BME280;1581;51.568;6.998;2023-01-30T10:02:43;100939.97;;;8.31;100.00
3142;BME280;1581;51.568;6.998;2023-01-30T10:05:13;100940.97;;;8.38;100.00
3142;BME280;1581;51.568;6.998;2023-01-30T10:07:57;100956.56;;;8.33;100.00
3142;BME280;1581;51.568;6.998;2023-01-30T10:10:46;100931.63;;;8.42;100.00
3142;BME280;1581;51.568;6.998;2023-01-30T10:13:33;100944.59;;;8.45;100.00
3142;BME280;1581;51.568;6.998;2023-01-30T10:16:12;100935.97;;;8.43;100.00
3142;BME280;1581;51.568;6.998;2023-01-30T10:21:59;100947.16;;;8.69;100.00
3142;BME280;1581;51.568;6.998;2023-01-30T10:24:42;100953.03;;;8.49;100.00
3142;BME280;1581;51.568;6.998;2023-01-30T10:27:17;100924.00;;;8.47;100.00
3142;BME280;1581;51.568;6.998;2023-01-30T10:29:52;100932.13;;;8.46;100.00
3142;BME280;1581;51.568;6.998;2023-01-30T10:32:26;100919.22;;;8.27;100.00
3142;BME280;1581;51.568;6.998;2023-01-30T10:35:04;100922.38;;;8.30;100.00
3142;BME280;1581;51.568;6.998;2023-01-30T10:37:38;100922.91;;;8.18;100.00
3142;BME280;1581;51.568;6.998;2023-01-30T10:40:20;100934.84;;;8.22;100.00
3142;BME280;1581;51.568;6.998;2023-01-30T10:43:01;100924.97;;;8.54;100.00
3142;BME280;1581;51.568;6.998;2023-01-30T10:45:37;100919.06;;;8.74;100.00
3142;BME280;1581;51.568;6.998;2023-01-30T10:54:13;100949.81;;;8.69;100.00
3142;BME280;1581;51.568;6.998;2023-01-30T10:56:50;100957.19;;;8.97;100.00
3142;BME280;1581;51.568;6.998;2023-01-30T10:59:34;100944.25;;;8.86;100.00
3142;BME280;1581;51.568;6.998;2023-01-30T11:02:22;100951.72;;;8.91;100.00
3142;BME280;1581;51.568;6.998;2023-01-30T11:04:57;100945.25;;;8.93;100.00
3142;BME280;1581;51.568;6.998;2023-01-30T11:07:30;100955.38;;;8.90;100.00
3142;BME280;1581;51.568;6.998;2023-01-30T11:09:59;100946.81;;;9.10;100.00
3142;BME280;1581;51.568;6.998;2023-01-30T11:12:27;100959.84;;;8.97;100.00
3142;BME280;1581;51.568;6.998;2023-01-30T11:15:00;100964.47;;;8.95;100.00
3142;BME280;1581;51.568;6.998;2023-01-30T11:17:32;100978.44;;;8.97;100.00
3142;BME280;1581;51.568;6.998;2023-01-30T11:20:10;100955.59;;;8.80;100.00
3142;BME280;1581;51.568;6.998;2023-01-30T11:22:46;100962.88;;;8.86;100.00
3142;BME280;1581;51.568;6.998;2023-01-30T11:25:18;100962.09;;;8.70;100.00
3142;BME280;1581;51.568;6.998;2023-01-30T11:27:53;100952.75;;;8.82;100.00
3142;BME280;1581;51.568;6.998;2023-01-30T11:30:28;100946.97;;;9.17;100.00
3142;BME280;1581;51.568;6.998;2023-01-30T11:33:09;100957.50;;;9.33;100.00
3142;BME280;1581;51.568;6.998;2023-01-30T11:35:43;100958.41;;;8.87;100.00
3142;BME280;1581;51.568;6.998;2023-01-30T11:38:20;100966.22;;;8.80;100.00
3142;BME280;1581;51.568;6.998;2023-01-30T11:40:48;100964.78;;;9.08;100.00
3142;BME280;1581;51.568;6.998;2023-01-30T11:43:16;100969.59;;;8.58;100.00
3142;BME280;1581;51.568;6.998;2023-01-30T11:45:48;100978.41;;;8.51;100.00
3142;BME280;1581;51.568;6.998;2023-01-30T11:48:20;100985.88;;;8.55;100.00
3142;BME280;1581;51.568;6.998;2023-01-30T11:50:54;100962.84;;;8.48;100.00
3142;BME280;1581;51.568;6.998;2023-01-30T11:53:31;100967.09;;;8.65;100.00
3142;BME280;1581;51.568;6.998;2023-01-30T11:56:07;100959.44;;;8.78;100.00
3142;BME280;1581;51.568;6.998;2023-01-30T11:58:39;100962.03;;;8.40;100.00
3142;BME280;1581;51.568;6.998;2023-01-30T12:01:10;100975.38;;;8.78;100.00
3142;BME280;1581;51.568;6.998;2023-01-30T12:03:48;100963.53;;;8.88;100.00
3142;BME280;1581;51.568;6.998;2023-01-30T12:06:27;100965.78;;;9.38;100.00
3142;BME280;1581;51.568;6.998;2023-01-30T12:08:59;100977.41;;;9.06;100.00
3142;BME280;1581;51.568;6.998;2023-01-30T12:11:40;100964.13;;;9.37;100.00
3142;BME280;1581;51.568;6.998;2023-01-30T12:14:34;100964.47;;;9.34;100.00
3142;BME280;1581;51.568;6.998;2023-01-30T12:17:13;100973.59;;;9.01;100.00
3142;BME280;1581;51.568;6.998;2023-01-30T12:19:55;100971.78;;;9.01;100.00
3142;BME280;1581;51.568;6.998;2023-01-30T12:22:34;100971.78;;;9.32;100.00
3142;BME280;1581;51.568;6.998;2023-01-30T12:25:13;100967.31;;;9.32;100.00
3142;BME280;1581;51.568;6.998;2023-01-30T12:27:54;100965.41;;;9.40;100.00
3142;BME280;1581;51.568;6.998;2023-01-30T12:30:43;100970.34;;;9.51;99.40
3142;BME280;1581;51.568;6.998;2023-01-30T12:33:14;100972.25;;;9.43;99.09
3142;BME280;1581;51.568;6.998;2023-01-30T12:36:06;100965.13;;;9.80;98.44
3142;BME280;1581;51.568;6.998;2023-01-30T12:39:03;100971.84;;;9.76;98.31
3142;BME280;1581;51.568;6.998;2023-01-30T12:41:53;100953.41;;;9.89;97.95
3142;BME280;1581;51.568;6.998;2023-01-30T12:47:40;100961.66;;;9.80;96.97
3142;BME280;1581;51.568;6.998;2023-01-30T12:50:26;100977.28;;;10.05;95.87
3142;BME280;1581;51.568;6.998;2023-01-30T12:53:18;100975.13;;;9.78;97.08
3142;BME280;1581;51.568;6.998;2023-01-30T12:56:13;100979.66;;;10.00;96.51
3142;BME280;1581;51.568;6.998;2023-01-30T12:58:49;100982.66;;;9.97;96.19
3142;BME280;1581;51.568;6.998;2023-01-30T13:01:27;100975.19;;;10.15;97.10
3142;BME280;1581;51.568;6.998;2023-01-30T13:04:05;101010.09;;;10.57;92.61
3142;BME280;1581;51.568;6.998;2023-01-30T13:07:02;100992.56;;;10.91;91.24
3142;BME280;1581;51.568;6.998;2023-01-30T13:09:51;101006.38;;;11.44;90.04
3142;BME280;1581;51.568;6.998;2023-01-30T13:12:31;101012.59;;;10.73;90.54
3142;BME280;1581;51.568;6.998;2023-01-30T13:15:13;100997.22;;;10.60;91.23
3142;BME280;1581;51.568;6.998;2023-01-30T13:17:53;101015.84;;;10.09;92.50
3142;BME280;1581;51.568;6.998;2023-01-30T13:20:41;100999.97;;;9.93;92.02
3142;BME280;1581;51.568;6.998;2023-01-30T13:23:17;101018.75;;;10.00;93.91
3142;BME280;1581;51.568;6.998;2023-01-30T13:25:58;101013.34;;;9.85;92.73
3142;BME280;1581;51.568;6.998;2023-01-30T13:28:33;101026.19;;;9.82;93.71
3142;BME280;1581;51.568;6.998;2023-01-30T13:31:05;101015.53;;;9.82;93.03
3142;BME280;1581;51.568;6.998;2023-01-30T13:33:37;101024.63;;;9.65;94.27
3142;BME280;1581;51.568;6.998;2023-01-30T13:36:13;101028.91;;;9.96;94.42
3142;BME280;1581;51.568;6.998;2023-01-30T13:38:56;101031.69;;;10.76;91.78
3142;BME280;1581;51.568;6.998;2023-01-30T13:41:29;101030.59;;;10.85;90.06
3142;BME280;1581;51.568;6.998;2023-01-30T13:43:58;101038.69;;;10.92;88.80
3142;BME280;1581;51.568;6.998;2023-01-30T13:46:28;101045.88;;;10.91;86.99
3142;BME280;1581;51.568;6.998;2023-01-30T13:49:08;101033.81;;;10.81;86.99
3142;BME280;1581;51.568;6.998;2023-01-30T13:51:46;101041.91;;;11.30;83.69
3142;BME280;1581;51.568;6.998;2023-01-30T13:54:42;101051.31;;;11.12;83.75